sensor_id;sensor_type;location;lat;lon;timestamp;P1;durP1;ratioP1;P2;durP2;ratioP2
1799;SDS011;919;48.274;12.292;2023-07-29T00:01:43;2.77;;;2.40;;
1799;SDS011;919;48.274;12.292;2023-07-29T00:04:10;2.60;;;2.40;;
1799;SDS011;919;48.274;12.292;2023-07-29T00:06:37;3.73;;;2.60;;
1799;SDS011;919;48.274;12.292;2023-07-29T00:09:04;2.97;;;2.77;;
1799;SDS011;919;48.274;12.292;2023-07-29T00:11:31;4.30;;;2.03;;
1799;SDS011;919;48.274;12.292;2023-07-29T00:13:58;2.40;;;1.83;;
1799;SDS011;919;48.274;12.292;2023-07-29T00:16:25;3.20;;;2.90;;
1799;SDS011;919;48.274;12.292;2023-07-29T00:18:53;3.03;;;2.40;;
1799;SDS011;919;48.274;12.292;2023-07-29T00:21:20;2.00;;;1.90;;
1799;SDS011;919;48.274;12.292;2023-07-29T00:23:47;3.03;;;2.40;;
1799;SDS011;919;48.274;12.292;2023-07-29T00:26:14;3.27;;;2.97;;
1799;SDS011;919;48.274;12.292;2023-07-29T00:28:40;2.83;;;2.23;;
1799;SDS011;919;48.274;12.292;2023-07-29T00:31:07;2.90;;;2.60;;
1799;SDS011;919;48.274;12.292;2023-07-29T00:33:34;2.23;;;2.00;;
1799;SDS011;919;48.274;12.292;2023-07-29T00:36:02;2.50;;;2.27;;
1799;SDS011;919;48.274;12.292;2023-07-29T00:38:29;2.67;;;2.47;;
1799;SDS011;919;48.274;12.292;2023-07-29T00:40:56;2.60;;;2.40;;
1799;SDS011;919;48.274;12.292;2023-07-29T00:43:24;3.33;;;2.30;;
1799;SDS011;919;48.274;12.292;2023-07-29T00:45:50;2.40;;;2.20;;
1799;SDS011;919;48.274;12.292;2023-07-29T00:48:18;2.93;;;2.43;;
1799;SDS011;919;48.274;12.292;2023-07-29T00:50:45;4.33;;;2.53;;
1799;SDS011;919;48.274;12.292;2023-07-29T00:53:13;2.37;;;2.07;;
1799;SDS011;919;48.274;12.292;2023-07-29T00:55:40;3.30;;;2.53;;
1799;SDS011;919;48.274;12.292;2023-07-29T00:58:07;2.83;;;2.37;;
1799;SDS011;919;48.274;12.292;2023-07-29T01:00:34;3.43;;;2.37;;
1799;SDS011;919;48.274;12.292;2023-07-29T01:03:01;2.80;;;2.50;;
1799;SDS011;919;48.274;12.292;2023-07-29T01:05:29;3.57;;;2.20;;
1799;SDS011;919;48.274;12.292;2023-07-29T01:08:07;2.73;;;2.53;;
1799;SDS011;919;48.274;12.292;2023-07-29T01:10:43;2.20;;;2.00;;
1799;SDS011;919;48.274;12.292;2023-07-29T01:13:13;2.80;;;2.43;;
1799;SDS011;919;48.274;12.292;2023-07-29T01:15:52;2.70;;;2.30;;
1799;SDS011;919;48.274;12.292;2023-07-29T01:18:22;2.30;;;2.10;;
1799;SDS011;919;48.274;12.292;2023-07-29T01:20:52;2.30;;;1.93;;
1799;SDS011;919;48.274;12.292;2023-07-29T01:23:24;2.73;;;2.23;;
1799;SDS011;919;48.274;12.292;2023-07-29T01:25:52;2.30;;;2.10;;
1799;SDS011;919;48.274;12.292;2023-07-29T01:28:18;2.30;;;2.03;;
1799;SDS011;919;48.274;12.292;2023-07-29T01:30:45;2.30;;;2.10;;
1799;SDS011;919;48.274;12.292;2023-07-29T01:33:20;2.07;;;1.97;;
1799;SDS011;919;48.274;12.292;2023-07-29T01:35:52;4.30;;;2.50;;
1799;SDS011;919;48.274;12.292;2023-07-29T01:38:27;2.73;;;2.50;;
1799;SDS011;919;48.274;12.292;2023-07-29T01:40:58;2.37;;;2.17;;
1799;SDS011;919;48.274;12.292;2023-07-29T01:43:27;2.37;;;2.17;;
1799;SDS011;919;48.274;12.292;2023-07-29T01:45:54;1.90;;;1.70;;
1799;SDS011;919;48.274;12.292;2023-07-29T01:48:21;2.03;;;1.63;;
1799;SDS011;919;48.274;12.292;2023-07-29T01:50:48;3.30;;;2.50;;
1799;SDS011;919;48.274;12.292;2023-07-29T01:53:14;1.97;;;1.77;;
1799;SDS011;919;48.274;12.292;2023-07-29T01:55:43;1.70;;;1.60;;
1799;SDS011;919;48.274;12.292;2023-07-29T01:58:10;1.90;;;1.77;;
1799;SDS011;919;48.274;12.292;2023-07-29T02:00:37;2.00;;;1.90;;
1799;SDS011;919;48.274;12.292;2023-07-29T02:03:04;2.50;;;2.30;;
1799;SDS011;919;48.274;12.292;2023-07-29T02:05:31;3.10;;;1.93;;
1799;SDS011;919;48.274;12.292;2023-07-29T02:07:58;2.03;;;1.80;;
1799;SDS011;919;48.274;12.292;2023-07-29T02:10:25;2.33;;;2.07;;
1799;SDS011;919;48.274;12.292;2023-07-29T02:12:53;1.80;;;1.70;;
1799;SDS011;919;48.274;12.292;2023-07-29T02:15:20;2.30;;;2.10;;
1799;SDS011;919;48.274;12.292;2023-07-29T02:17:46;2.63;;;2.27;;
1799;SDS011;919;48.274;12.292;2023-07-29T02:20:13;2.13;;;2.00;;
1799;SDS011;919;48.274;12.292;2023-07-29T02:22:40;2.70;;;2.50;;
1799;SDS011;919;48.274;12.292;2023-07-29T02:25:07;2.30;;;2.03;;
1799;SDS011;919;48.274;12.292;2023-07-29T02:27:35;2.60;;;2.00;;
1799;SDS011;919;48.274;12.292;2023-07-29T02:30:03;2.20;;;2.00;;
1799;SDS011;919;48.274;12.292;2023-07-29T02:32:30;1.90;;;1.70;;
1799;SDS011;919;48.274;12.292;2023-07-29T02:34:57;2.17;;;1.97;;
1799;SDS011;919;48.274;12.292;2023-07-29T02:37:24;2.47;;;2.27;;
1799;SDS011;919;48.274;12.292;2023-07-29T02:39:51;1.73;;;1.60;;
1799;SDS011;919;48.274;12.292;2023-07-29T02:42:17;1.70;;;1.60;;
1799;SDS011;919;48.274;12.292;2023-07-29T02:44:44;1.70;;;1.40;;
1799;SDS011;919;48.274;12.292;2023-07-29T02:47:12;2.13;;;1.80;;
1799;SDS011;919;48.274;12.292;2023-07-29T02:49:39;2.20;;;1.57;;
1799;SDS011;919;48.274;12.292;2023-07-29T02:52:06;2.63;;;2.43;;
1799;SDS011;919;48.274;12.292;2023-07-29T02:54:32;3.90;;;2.40;;
1799;SDS011;919;48.274;12.292;2023-07-29T02:56:59;2.40;;;2.10;;
1799;SDS011;919;48.274;12.292;2023-07-29T02:59:26;2.43;;;1.80;;
1799;SDS011;919;48.274;12.292;2023-07-29T03:01:52;2.37;;;2.23;;
1799;SDS011;919;48.274;12.292;2023-07-29T03:04:21;5.03;;;2.13;;
1799;SDS011;919;48.274;12.292;2023-07-29T03:06:48;1.80;;;1.63;;
1799;SDS011;919;48.274;12.292;2023-07-29T03:09:15;2.63;;;2.00;;
1799;SDS011;919;48.274;12.292;2023-07-29T03:11:41;2.33;;;2.13;;
1799;SDS011;919;48.274;12.292;2023-07-29T03:14:08;1.70;;;1.60;;
1799;SDS011;919;48.274;12.292;2023-07-29T03:16:35;1.67;;;1.57;;
1799;SDS011;919;48.274;12.292;2023-07-29T03:19:02;1.17;;;1.13;;
1799;SDS011;919;48.274;12.292;2023-07-29T03:21:30;1.80;;;1.70;;
1799;SDS011;919;48.274;12.292;2023-07-29T03:23:56;3.50;;;1.67;;
1799;SDS011;919;48.274;12.292;2023-07-29T03:26:23;2.23;;;2.00;;
1799;SDS011;919;48.274;12.292;2023-07-29T03:28:50;3.53;;;2.13;;
1799;SDS011;919;48.274;12.292;2023-07-29T03:31:17;3.00;;;2.00;;
1799;SDS011;919;48.274;12.292;2023-07-29T03:33:44;3.50;;;3.17;;
1799;SDS011;919;48.274;12.292;2023-07-29T03:36:10;2.60;;;2.40;;
1799;SDS011;919;48.274;12.292;2023-07-29T03:38:38;2.73;;;2.43;;
1799;SDS011;919;48.274;12.292;2023-07-29T03:41:05;3.40;;;1.70;;
1799;SDS011;919;48.274;12.292;2023-07-29T03:43:33;2.20;;;1.90;;
1799;SDS011;919;48.274;12.292;2023-07-29T03:46:00;1.23;;;1.17;;
1799;SDS011;919;48.274;12.292;2023-07-29T03:48:27;1.90;;;1.70;;
1799;SDS011;919;48.274;12.292;2023-07-29T03:50:53;2.50;;;2.00;;
1799;SDS011;919;48.274;12.292;2023-07-29T03:53:20;2.50;;;2.30;;
1799;SDS011;919;48.274;12.292;2023-07-29T03:55:48;1.67;;;1.57;;
1799;SDS011;919;48.274;12.292;2023-07-29T03:58:16;2.73;;;2.10;;
1799;SDS011;919;48.274;12.292;2023-07-29T04:00:43;1.90;;;1.80;;
1799;SDS011;919;48.274;12.292;2023-07-29T04:03:09;2.67;;;2.47;;
1799;SDS011;919;48.274;12.292;2023-07-29T04:05:36;3.57;;;2.10;;
1799;SDS011;919;48.274;12.292;2023-07-29T04:08:03;2.87;;;2.03;;
1799;SDS011;919;48.274;12.292;2023-07-29T04:10:30;4.40;;;1.83;;
1799;SDS011;919;48.274;12.292;2023-07-29T04:12:58;2.40;;;2.20;;
1799;SDS011;919;48.274;12.292;2023-07-29T04:15:25;2.27;;;2.07;;
1799;SDS011;919;48.274;12.292;2023-07-29T04:17:51;3.23;;;2.43;;
1799;SDS011;919;48.274;12.292;2023-07-29T04:20:18;2.50;;;2.30;;
1799;SDS011;919;48.274;12.292;2023-07-29T04:22:45;2.80;;;2.50;;
1799;SDS011;919;48.274;12.292;2023-07-29T04:25:12;3.23;;;2.63;;
1799;SDS011;919;48.274;12.292;2023-07-29T04:27:38;2.90;;;1.83;;
1799;SDS011;919;48.274;12.292;2023-07-29T04:30:07;2.07;;;1.87;;
1799;SDS011;919;48.274;12.292;2023-07-29T04:32:34;2.47;;;2.27;;
1799;SDS011;919;48.274;12.292;2023-07-29T04:35:01;5.00;;;2.40;;
1799;SDS011;919;48.274;12.292;2023-07-29T04:37:28;2.03;;;1.93;;
1799;SDS011;919;48.274;12.292;2023-07-29T04:39:55;2.20;;;1.87;;
1799;SDS011;919;48.274;12.292;2023-07-29T04:42:22;2.30;;;2.10;;
1799;SDS011;919;48.274;12.292;2023-07-29T04:44:48;2.20;;;1.63;;
1799;SDS011;919;48.274;12.292;2023-07-29T04:47:16;2.17;;;1.97;;
1799;SDS011;919;48.274;12.292;2023-07-29T04:49:43;2.50;;;2.30;;
1799;SDS011;919;48.274;12.292;2023-07-29T04:52:10;2.53;;;2.33;;
1799;SDS011;919;48.274;12.292;2023-07-29T04:54:37;4.90;;;2.47;;
1799;SDS011;919;48.274;12.292;2023-07-29T04:57:04;2.70;;;2.33;;
1799;SDS011;919;48.274;12.292;2023-07-29T04:59:31;2.47;;;2.27;;
1799;SDS011;919;48.274;12.292;2023-07-29T05:01:57;4.93;;;2.00;;
1799;SDS011;919;48.274;12.292;2023-07-29T05:04:25;2.63;;;2.30;;
1799;SDS011;919;48.274;12.292;2023-07-29T05:06:52;2.47;;;2.27;;
1799;SDS011;919;48.274;12.292;2023-07-29T05:09:19;2.47;;;2.13;;
1799;SDS011;919;48.274;12.292;2023-07-29T05:11:46;2.73;;;2.13;;
1799;SDS011;919;48.274;12.292;2023-07-29T05:14:14;3.10;;;2.33;;
1799;SDS011;919;48.274;12.292;2023-07-29T05:16:42;2.80;;;2.33;;
1799;SDS011;919;48.274;12.292;2023-07-29T05:19:09;3.40;;;1.93;;
1799;SDS011;919;48.274;12.292;2023-07-29T05:21:38;2.47;;;2.27;;
1799;SDS011;919;48.274;12.292;2023-07-29T05:24:05;5.20;;;2.00;;
1799;SDS011;919;48.274;12.292;2023-07-29T05:26:32;2.13;;;2.03;;
1799;SDS011;919;48.274;12.292;2023-07-29T05:28:59;1.77;;;1.63;;
1799;SDS011;919;48.274;12.292;2023-07-29T05:31:25;2.10;;;1.70;;
1799;SDS011;919;48.274;12.292;2023-07-29T05:33:52;3.80;;;2.30;;
1799;SDS011;919;48.274;12.292;2023-07-29T05:36:19;2.87;;;2.57;;
1799;SDS011;919;48.274;12.292;2023-07-29T05:38:47;2.40;;;2.20;;
1799;SDS011;919;48.274;12.292;2023-07-29T05:41:14;1.83;;;1.70;;
1799;SDS011;919;48.274;12.292;2023-07-29T05:43:41;1.93;;;1.83;;
1799;SDS011;919;48.274;12.292;2023-07-29T05:46:08;3.80;;;2.30;;
1799;SDS011;919;48.274;12.292;2023-07-29T05:48:35;3.10;;;2.10;;
1799;SDS011;919;48.274;12.292;2023-07-29T05:51:01;2.60;;;2.10;;
1799;SDS011;919;48.274;12.292;2023-07-29T05:53:30;6.73;;;2.20;;
1799;SDS011;919;48.274;12.292;2023-07-29T05:55:58;2.03;;;1.90;;
1799;SDS011;919;48.274;12.292;2023-07-29T05:58:25;2.53;;;1.97;;
1799;SDS011;919;48.274;12.292;2023-07-29T06:00:51;3.00;;;2.70;;
1799;SDS011;919;48.274;12.292;2023-07-29T06:03:18;2.03;;;1.80;;
1799;SDS011;919;48.274;12.292;2023-07-29T06:05:45;2.83;;;2.40;;
1799;SDS011;919;48.274;12.292;2023-07-29T06:08:12;1.90;;;1.70;;
1799;SDS011;919;48.274;12.292;2023-07-29T06:10:38;2.97;;;2.67;;
1799;SDS011;919;48.274;12.292;2023-07-29T06:13:06;2.10;;;1.90;;
1799;SDS011;919;48.274;12.292;2023-07-29T06:15:33;2.27;;;2.07;;
1799;SDS011;919;48.274;12.292;2023-07-29T06:18:00;2.20;;;1.90;;
1799;SDS011;919;48.274;12.292;2023-07-29T06:20:27;1.77;;;1.67;;
1799;SDS011;919;48.274;12.292;2023-07-29T06:22:54;2.83;;;2.10;;
1799;SDS011;919;48.274;12.292;2023-07-29T06:25:21;2.97;;;2.67;;
1799;SDS011;919;48.274;12.292;2023-07-29T06:27:47;4.40;;;2.30;;
1799;SDS011;919;48.274;12.292;2023-07-29T06:30:16;4.70;;;2.20;;
1799;SDS011;919;48.274;12.292;2023-07-29T06:32:42;3.37;;;2.07;;
1799;SDS011;919;48.274;12.292;2023-07-29T06:35:09;2.40;;;2.13;;
1799;SDS011;919;48.274;12.292;2023-07-29T06:37:36;2.67;;;2.40;;
1799;SDS011;919;48.274;12.292;2023-07-29T06:40:03;2.40;;;2.00;;
1799;SDS011;919;48.274;12.292;2023-07-29T06:42:30;2.50;;;2.30;;
1799;SDS011;919;48.274;12.292;2023-07-29T06:44:57;5.37;;;1.80;;
1799;SDS011;919;48.274;12.292;2023-07-29T06:47:25;2.17;;;1.97;;
1799;SDS011;919;48.274;12.292;2023-07-29T06:49:53;2.20;;;2.00;;
1799;SDS011;919;48.274;12.292;2023-07-29T06:52:20;2.80;;;2.60;;
1799;SDS011;919;48.274;12.292;2023-07-29T06:54:46;2.00;;;1.77;;
1799;SDS011;919;48.274;12.292;2023-07-29T06:57:13;2.23;;;1.87;;
1799;SDS011;919;48.274;12.292;2023-07-29T06:59:40;1.80;;;1.67;;
1799;SDS011;919;48.274;12.292;2023-07-29T07:02:07;3.40;;;1.90;;
1799;SDS011;919;48.274;12.292;2023-07-29T07:04:35;3.23;;;1.70;;
1799;SDS011;919;48.274;12.292;2023-07-29T07:07:02;2.10;;;1.83;;
1799;SDS011;919;48.274;12.292;2023-07-29T07:09:29;2.37;;;2.03;;
1799;SDS011;919;48.274;12.292;2023-07-29T07:11:55;2.37;;;2.17;;
1799;SDS011;919;48.274;12.292;2023-07-29T07:14:22;2.27;;;1.83;;
1799;SDS011;919;48.274;12.292;2023-07-29T07:16:49;2.07;;;1.70;;
1799;SDS011;919;48.274;12.292;2023-07-29T07:19:16;1.60;;;1.50;;
1799;SDS011;919;48.274;12.292;2023-07-29T07:21:44;1.50;;;1.40;;
1799;SDS011;919;48.274;12.292;2023-07-29T07:24:11;2.40;;;1.93;;
1799;SDS011;919;48.274;12.292;2023-07-29T07:26:37;1.90;;;1.80;;
1799;SDS011;919;48.274;12.292;2023-07-29T07:29:04;1.87;;;1.77;;
1799;SDS011;919;48.274;12.292;2023-07-29T07:31:32;2.97;;;2.00;;
1799;SDS011;919;48.274;12.292;2023-07-29T07:34:02;1.90;;;1.30;;
1799;SDS011;919;48.274;12.292;2023-07-29T07:36:29;3.03;;;1.70;;
1799;SDS011;919;48.274;12.292;2023-07-29T07:38:57;1.87;;;1.73;;
1799;SDS011;919;48.274;12.292;2023-07-29T07:41:24;3.03;;;1.87;;
1799;SDS011;919;48.274;12.292;2023-07-29T07:43:51;1.53;;;1.43;;
1799;SDS011;919;48.274;12.292;2023-07-29T07:46:18;1.73;;;1.63;;
1799;SDS011;919;48.274;12.292;2023-07-29T07:48:45;1.80;;;1.70;;
1799;SDS011;919;48.274;12.292;2023-07-29T07:51:12;1.60;;;1.50;;
1799;SDS011;919;48.274;12.292;2023-07-29T07:53:39;2.07;;;1.70;;
1799;SDS011;919;48.274;12.292;2023-07-29T07:56:08;2.30;;;2.00;;
1799;SDS011;919;48.274;12.292;2023-07-29T07:58:35;3.63;;;1.93;;
1799;SDS011;919;48.274;12.292;2023-07-29T08:01:16;2.00;;;1.80;;
1799;SDS011;919;48.274;12.292;2023-07-29T08:03:43;1.80;;;1.70;;
1799;SDS011;919;48.274;12.292;2023-07-29T08:06:10;2.27;;;1.87;;
1799;SDS011;919;48.274;12.292;2023-07-29T08:08:37;2.10;;;2.00;;
1799;SDS011;919;48.274;12.292;2023-07-29T08:11:05;4.60;;;1.90;;
1799;SDS011;919;48.274;12.292;2023-07-29T08:13:33;3.00;;;2.30;;
1799;SDS011;919;48.274;12.292;2023-07-29T08:16:00;1.90;;;1.80;;
1799;SDS011;919;48.274;12.292;2023-07-29T08:18:27;2.07;;;1.80;;
1799;SDS011;919;48.274;12.292;2023-07-29T08:20:55;2.27;;;2.07;;
1799;SDS011;919;48.274;12.292;2023-07-29T08:23:24;2.00;;;1.80;;
1799;SDS011;919;48.274;12.292;2023-07-29T08:25:52;2.80;;;2.03;;
1799;SDS011;919;48.274;12.292;2023-07-29T08:28:22;1.83;;;1.73;;
1799;SDS011;919;48.274;12.292;2023-07-29T08:30:51;1.77;;;1.63;;
1799;SDS011;919;48.274;12.292;2023-07-29T08:33:18;2.00;;;1.80;;
1799;SDS011;919;48.274;12.292;2023-07-29T08:35:46;2.03;;;1.83;;
1799;SDS011;919;48.274;12.292;2023-07-29T08:38:13;2.70;;;2.27;;
1799;SDS011;919;48.274;12.292;2023-07-29T08:40:42;3.67;;;1.90;;
1799;SDS011;919;48.274;12.292;2023-07-29T08:43:24;2.00;;;1.90;;
1799;SDS011;919;48.274;12.292;2023-07-29T08:45:59;2.10;;;1.90;;
1799;SDS011;919;48.274;12.292;2023-07-29T08:48:29;2.50;;;2.23;;
1799;SDS011;919;48.274;12.292;2023-07-29T08:50:59;2.40;;;2.13;;
1799;SDS011;919;48.274;12.292;2023-07-29T08:53:29;2.53;;;2.33;;
1799;SDS011;919;48.274;12.292;2023-07-29T08:55:57;3.30;;;1.90;;
1799;SDS011;919;48.274;12.292;2023-07-29T08:58:31;5.10;;;2.23;;
1799;SDS011;919;48.274;12.292;2023-07-29T09:01:00;2.27;;;2.10;;
1799;SDS011;919;48.274;12.292;2023-07-29T09:03:27;2.47;;;2.27;;
1799;SDS011;919;48.274;12.292;2023-07-29T09:05:54;2.87;;;2.23;;
1799;SDS011;919;48.274;12.292;2023-07-29T09:08:28;2.70;;;2.50;;
1799;SDS011;919;48.274;12.292;2023-07-29T09:10:55;2.70;;;2.50;;
1799;SDS011;919;48.274;12.292;2023-07-29T09:13:23;2.50;;;2.30;;
1799;SDS011;919;48.274;12.292;2023-07-29T09:15:54;4.30;;;2.23;;
1799;SDS011;919;48.274;12.292;2023-07-29T09:18:22;3.13;;;2.53;;
1799;SDS011;919;48.274;12.292;2023-07-29T09:20:52;2.87;;;2.53;;
1799;SDS011;919;48.274;12.292;2023-07-29T09:23:19;2.00;;;1.80;;
1799;SDS011;919;48.274;12.292;2023-07-29T09:25:46;2.67;;;2.47;;
1799;SDS011;919;48.274;12.292;2023-07-29T09:28:15;2.27;;;2.00;;
1799;SDS011;919;48.274;12.292;2023-07-29T09:30:44;2.30;;;2.10;;
1799;SDS011;919;48.274;12.292;2023-07-29T09:33:13;3.50;;;2.07;;
1799;SDS011;919;48.274;12.292;2023-07-29T09:35:41;6.47;;;2.37;;
1799;SDS011;919;48.274;12.292;2023-07-29T09:38:08;2.40;;;2.20;;
1799;SDS011;919;48.274;12.292;2023-07-29T09:40:41;3.60;;;2.53;;
1799;SDS011;919;48.274;12.292;2023-07-29T09:43:10;2.13;;;1.97;;
1799;SDS011;919;48.274;12.292;2023-07-29T09:45:37;2.63;;;2.43;;
1799;SDS011;919;48.274;12.292;2023-07-29T09:48:06;2.47;;;2.27;;
1799;SDS011;919;48.274;12.292;2023-07-29T09:50:36;4.00;;;2.53;;
1799;SDS011;919;48.274;12.292;2023-07-29T09:53:06;4.63;;;4.23;;
1799;SDS011;919;48.274;12.292;2023-07-29T09:55:34;2.80;;;2.57;;
1799;SDS011;919;48.274;12.292;2023-07-29T09:58:01;3.47;;;2.47;;
1799;SDS011;919;48.274;12.292;2023-07-29T10:00:33;3.93;;;2.87;;
1799;SDS011;919;48.274;12.292;2023-07-29T10:03:01;2.83;;;2.57;;
1799;SDS011;919;48.274;12.292;2023-07-29T10:05:28;4.93;;;2.73;;
1799;SDS011;919;48.274;12.292;2023-07-29T10:07:55;3.27;;;2.97;;
1799;SDS011;919;48.274;12.292;2023-07-29T10:10:24;2.60;;;2.40;;
1799;SDS011;919;48.274;12.292;2023-07-29T10:12:54;2.40;;;2.20;;
1799;SDS011;919;48.274;12.292;2023-07-29T10:15:24;3.20;;;3.00;;
1799;SDS011;919;48.274;12.292;2023-07-29T10:17:51;2.93;;;2.60;;
1799;SDS011;919;48.274;12.292;2023-07-29T10:20:19;2.60;;;2.40;;
1799;SDS011;919;48.274;12.292;2023-07-29T10:22:47;3.50;;;2.60;;
1799;SDS011;919;48.274;12.292;2023-07-29T10:25:15;3.13;;;2.93;;
1799;SDS011;919;48.274;12.292;2023-07-29T10:27:47;3.57;;;2.93;;
1799;SDS011;919;48.274;12.292;2023-07-29T10:30:15;2.67;;;2.47;;
1799;SDS011;919;48.274;12.292;2023-07-29T10:32:43;3.70;;;3.40;;
1799;SDS011;919;48.274;12.292;2023-07-29T10:35:11;3.20;;;2.90;;
1799;SDS011;919;48.274;12.292;2023-07-29T10:37:38;2.97;;;2.67;;
1799;SDS011;919;48.274;12.292;2023-07-29T10:40:07;3.30;;;3.00;;
1799;SDS011;919;48.274;12.292;2023-07-29T10:42:35;4.50;;;3.30;;
1799;SDS011;919;48.274;12.292;2023-07-29T10:45:18;3.20;;;2.80;;
1799;SDS011;919;48.274;12.292;2023-07-29T10:47:47;2.90;;;2.63;;
1799;SDS011;919;48.274;12.292;2023-07-29T10:50:17;3.30;;;3.00;;
1799;SDS011;919;48.274;12.292;2023-07-29T10:52:48;3.20;;;2.97;;
1799;SDS011;919;48.274;12.292;2023-07-29T10:55:27;3.30;;;3.00;;
1799;SDS011;919;48.274;12.292;2023-07-29T10:58:09;3.57;;;3.30;;
1799;SDS011;919;48.274;12.292;2023-07-29T11:00:40;4.07;;;3.70;;
1799;SDS011;919;48.274;12.292;2023-07-29T11:03:08;3.03;;;2.83;;
1799;SDS011;919;48.274;12.292;2023-07-29T11:05:42;3.70;;;3.40;;
1799;SDS011;919;48.274;12.292;2023-07-29T11:08:19;3.40;;;3.10;;
1799;SDS011;919;48.274;12.292;2023-07-29T11:11:03;3.23;;;2.93;;
1799;SDS011;919;48.274;12.292;2023-07-29T11:13:31;3.47;;;3.17;;
1799;SDS011;919;48.274;12.292;2023-07-29T11:16:01;3.90;;;2.83;;
1799;SDS011;919;48.274;12.292;2023-07-29T11:18:29;3.50;;;3.20;;
1799;SDS011;919;48.274;12.292;2023-07-29T11:20:57;3.73;;;3.43;;
1799;SDS011;919;48.274;12.292;2023-07-29T11:23:28;3.20;;;2.93;;
1799;SDS011;919;48.274;12.292;2023-07-29T11:25:56;3.70;;;3.40;;
1799;SDS011;919;48.274;12.292;2023-07-29T11:28:23;2.80;;;2.60;;
1799;SDS011;919;48.274;12.292;2023-07-29T11:30:50;4.13;;;3.30;;
1799;SDS011;919;48.274;12.292;2023-07-29T11:33:19;1.67;;;1.57;;
1799;SDS011;919;48.274;12.292;2023-07-29T11:35:46;1.63;;;1.53;;
1799;SDS011;919;48.274;12.292;2023-07-29T11:38:17;1.80;;;1.70;;
1799;SDS011;919;48.274;12.292;2023-07-29T11:40:53;1.60;;;1.50;;
1799;SDS011;919;48.274;12.292;2023-07-29T11:43:21;1.67;;;1.37;;
1799;SDS011;919;48.274;12.292;2023-07-29T11:45:48;5.03;;;2.20;;
1799;SDS011;919;48.274;12.292;2023-07-29T11:48:14;8.10;;;3.47;;
1799;SDS011;919;48.274;12.292;2023-07-29T11:50:42;9.03;;;1.90;;
1799;SDS011;919;48.274;12.292;2023-07-29T11:53:11;4.63;;;1.90;;
1799;SDS011;919;48.274;12.292;2023-07-29T11:55:38;4.50;;;2.20;;
1799;SDS011;919;48.274;12.292;2023-07-29T11:58:05;5.43;;;2.30;;
1799;SDS011;919;48.274;12.292;2023-07-29T12:00:32;4.63;;;2.13;;
1799;SDS011;919;48.274;12.292;2023-07-29T12:02:59;3.13;;;1.93;;
1799;SDS011;919;48.274;12.292;2023-07-29T12:05:26;1.83;;;1.70;;
1799;SDS011;919;48.274;12.292;2023-07-29T12:07:55;1.63;;;1.53;;
1799;SDS011;919;48.274;12.292;2023-07-29T12:10:22;2.20;;;2.00;;
1799;SDS011;919;48.274;12.292;2023-07-29T12:12:49;2.40;;;1.50;;
1799;SDS011;919;48.274;12.292;2023-07-29T12:15:23;1.70;;;1.47;;
1799;SDS011;919;48.274;12.292;2023-07-29T12:17:52;1.93;;;1.63;;
1799;SDS011;919;48.274;12.292;2023-07-29T12:20:21;3.10;;;1.80;;
1799;SDS011;919;48.274;12.292;2023-07-29T12:22:51;2.10;;;1.90;;
1799;SDS011;919;48.274;12.292;2023-07-29T12:25:20;2.40;;;2.20;;
1799;SDS011;919;48.274;12.292;2023-07-29T12:27:47;2.53;;;2.33;;
1799;SDS011;919;48.274;12.292;2023-07-29T12:30:14;2.07;;;1.90;;
1799;SDS011;919;48.274;12.292;2023-07-29T12:32:44;2.20;;;2.00;;
1799;SDS011;919;48.274;12.292;2023-07-29T12:35:11;1.77;;;1.67;;
1799;SDS011;919;48.274;12.292;2023-07-29T12:37:38;1.97;;;1.77;;
1799;SDS011;919;48.274;12.292;2023-07-29T12:40:08;4.07;;;2.17;;
1799;SDS011;919;48.274;12.292;2023-07-29T12:42:48;2.67;;;1.70;;
1799;SDS011;919;48.274;12.292;2023-07-29T12:45:16;2.33;;;2.10;;
1799;SDS011;919;48.274;12.292;2023-07-29T12:47:43;3.13;;;2.30;;
1799;SDS011;919;48.274;12.292;2023-07-29T12:50:10;2.37;;;2.10;;
1799;SDS011;919;48.274;12.292;2023-07-29T12:52:37;2.97;;;2.50;;
1799;SDS011;919;48.274;12.292;2023-07-29T12:55:04;3.50;;;2.37;;
1799;SDS011;919;48.274;12.292;2023-07-29T12:57:33;2.37;;;2.17;;
1799;SDS011;919;48.274;12.292;2023-07-29T13:00:02;2.50;;;2.30;;
1799;SDS011;919;48.274;12.292;2023-07-29T13:02:29;2.33;;;2.13;;
1799;SDS011;919;48.274;12.292;2023-07-29T13:04:56;2.87;;;2.67;;
1799;SDS011;919;48.274;12.292;2023-07-29T13:07:23;2.87;;;2.23;;
1799;SDS011;919;48.274;12.292;2023-07-29T13:09:49;2.87;;;2.67;;
1799;SDS011;919;48.274;12.292;2023-07-29T13:12:16;3.30;;;2.70;;
1799;SDS011;919;48.274;12.292;2023-07-29T13:14:43;3.83;;;2.83;;
1799;SDS011;919;48.274;12.292;2023-07-29T13:17:11;2.90;;;2.70;;
1799;SDS011;919;48.274;12.292;2023-07-29T13:19:38;2.93;;;2.73;;
1799;SDS011;919;48.274;12.292;2023-07-29T13:22:05;2.73;;;2.53;;
1799;SDS011;919;48.274;12.292;2023-07-29T13:24:32;2.87;;;2.67;;
1799;SDS011;919;48.274;12.292;2023-07-29T13:26:58;2.80;;;2.13;;
1799;SDS011;919;48.274;12.292;2023-07-29T13:29:25;2.43;;;2.23;;
1799;SDS011;919;48.274;12.292;2023-07-29T13:31:52;2.57;;;2.37;;
1799;SDS011;919;48.274;12.292;2023-07-29T13:34:20;3.43;;;2.40;;
1799;SDS011;919;48.274;12.292;2023-07-29T13:36:47;2.57;;;2.37;;
1799;SDS011;919;48.274;12.292;2023-07-29T13:39:13;2.50;;;2.30;;
1799;SDS011;919;48.274;12.292;2023-07-29T13:41:41;2.90;;;2.70;;
1799;SDS011;919;48.274;12.292;2023-07-29T13:44:07;5.00;;;2.77;;
1799;SDS011;919;48.274;12.292;2023-07-29T13:46:34;3.13;;;2.93;;
1799;SDS011;919;48.274;12.292;2023-07-29T13:49:01;3.07;;;2.67;;
1799;SDS011;919;48.274;12.292;2023-07-29T13:51:29;2.70;;;2.50;;
1799;SDS011;919;48.274;12.292;2023-07-29T13:53:56;2.47;;;2.30;;
1799;SDS011;919;48.274;12.292;2023-07-29T13:56:23;3.50;;;3.20;;
1799;SDS011;919;48.274;12.292;2023-07-29T13:58:49;3.53;;;3.23;;
1799;SDS011;919;48.274;12.292;2023-07-29T14:01:16;3.30;;;3.00;;
1799;SDS011;919;48.274;12.292;2023-07-29T14:03:43;2.77;;;2.37;;
1799;SDS011;919;48.274;12.292;2023-07-29T14:06:10;3.80;;;2.67;;
1799;SDS011;919;48.274;12.292;2023-07-29T14:08:38;2.40;;;2.20;;
1799;SDS011;919;48.274;12.292;2023-07-29T14:11:06;3.13;;;2.83;;
1799;SDS011;919;48.274;12.292;2023-07-29T14:13:32;3.13;;;2.83;;
1799;SDS011;919;48.274;12.292;2023-07-29T14:16:00;3.43;;;3.13;;
1799;SDS011;919;48.274;12.292;2023-07-29T14:18:27;3.10;;;2.80;;
1799;SDS011;919;48.274;12.292;2023-07-29T14:20:54;4.93;;;3.17;;
1799;SDS011;919;48.274;12.292;2023-07-29T14:23:20;3.23;;;2.90;;
1799;SDS011;919;48.274;12.292;2023-07-29T14:25:49;3.07;;;2.87;;
1799;SDS011;919;48.274;12.292;2023-07-29T14:28:15;3.20;;;2.83;;
1799;SDS011;919;48.274;12.292;2023-07-29T14:30:42;3.07;;;2.87;;
1799;SDS011;919;48.274;12.292;2023-07-29T14:33:09;2.73;;;2.53;;
1799;SDS011;919;48.274;12.292;2023-07-29T14:35:36;2.53;;;2.33;;
1799;SDS011;919;48.274;12.292;2023-07-29T14:38:02;2.80;;;2.60;;
1799;SDS011;919;48.274;12.292;2023-07-29T14:40:29;3.67;;;3.00;;
1799;SDS011;919;48.274;12.292;2023-07-29T14:42:57;2.87;;;2.67;;
1799;SDS011;919;48.274;12.292;2023-07-29T14:45:24;3.40;;;3.10;;
1799;SDS011;919;48.274;12.292;2023-07-29T14:47:51;3.47;;;3.17;;
1799;SDS011;919;48.274;12.292;2023-07-29T14:50:17;3.40;;;3.10;;
1799;SDS011;919;48.274;12.292;2023-07-29T14:52:44;3.10;;;2.80;;
1799;SDS011;919;48.274;12.292;2023-07-29T14:55:11;3.03;;;2.83;;
1799;SDS011;919;48.274;12.292;2023-07-29T14:57:38;3.40;;;3.10;;
1799;SDS011;919;48.274;12.292;2023-07-29T15:00:08;5.93;;;5.40;;
1799;SDS011;919;48.274;12.292;2023-07-29T15:02:35;3.57;;;3.23;;
1799;SDS011;919;48.274;12.292;2023-07-29T15:05:02;4.10;;;3.70;;
1799;SDS011;919;48.274;12.292;2023-07-29T15:07:29;3.10;;;2.87;;
1799;SDS011;919;48.274;12.292;2023-07-29T15:09:56;3.30;;;3.10;;
1799;SDS011;919;48.274;12.292;2023-07-29T15:12:23;3.97;;;3.37;;
1799;SDS011;919;48.274;12.292;2023-07-29T15:14:50;4.00;;;3.60;;
1799;SDS011;919;48.274;12.292;2023-07-29T15:17:18;3.00;;;2.80;;
1799;SDS011;919;48.274;12.292;2023-07-29T15:19:44;3.13;;;2.93;;